LiveATC.Net - Listen to live air traffic control over the Internet!


ICAO: CYYB  IATA: YYB   Airport: North Bay Airport
City: North Bay   State/Province: Ontario
Country: Canada   Continent: North America
CYYB METAR Weather: CYYB 221800Z 23016G22KT 30SM BKN022 00/M04 A2995 RMK SC7 SLP162
CYYB Flight Activity (FlightAware)

CYYB RDO/CTAF
Feed Status: DOWN
Last heard on: 2020-02-20 19:13:39 (2 days 0 hours 10 minutes ago)
Archive Access: CYYB RDO/CTAF
FacilityFrequency
North Bay RDO/CTAF118.300

CYYB Toronto Center
Feed Status: DOWN
Last heard on: 2020-02-20 19:13:39 (2 days 0 hours 10 minutes ago)
Archive Access: CYYB Toronto Center
FacilityFrequency
Toronto Center127.250

NOTICE

Unauthorized use prohibited. See LiveATC.net Terms of Service


Airport/ARTCC Code
Frequency Search
(e.g., 124.400, 128.75)
Site-wide search
 


Browse Feeds
Top 50 Feeds
Coverage Map
Bad Weather Areas

LiveATC FAQ
Offer LiveATC feed
Contact LiveATC.net
Press Inquiries

LiveATC on iPhone
LiveATC on Android

Windows Phone
Windows 8/10

LiveATC Mobile
(Mobile browser)

ATC Audio Archives
Interesting Recordings

LiveATC Forums


Home Page
About LiveATC.net
Make a Donation
Terms of Use
Privacy Policy

Canadian Air Freqs

AIRMETs/SIGMETs

FAA Airport Status
Nat'l Airspace Status
Arrival Demand Charts


Server Software By:
Icecast.org
Liquidsoap